Time;durP1;ratioP1;P1;durP2;ratioP2;P2;SDS_P1;SDS_P2;PMS_P1;PMS_P2;Temp;Humidity;BMP_temperature;BMP_pressure;BME280_temperature;BME280_humidity;BME280_pressure;Samples;Min_cycle;Max_cycle;Signal;HPM_P1;HPM_P2
2021/08/09 00:00:06;;;;;;;0.40;0.40;;;9.50;90.70;;;;;;2040899;29;20592;-67
2021/08/09 00:01:07;;;;;;;0.30;0.30;;;9.50;90.70;;;;;;2040904;29;20244;-67
2021/08/09 00:02:08;;;;;;;0.40;0.40;;;9.40;90.80;;;;;;2040806;29;20204;-67
2021/08/09 00:03:09;;;;;;;0.37;0.37;;;9.40;90.80;;;;;;2040665;29;20236;-67
2021/08/09 00:04:09;;;;;;;0.53;0.53;;;9.40;90.80;;;;;;2040907;29;20189;-67
2021/08/09 00:05:10;;;;;;;0.43;0.43;;;9.40;90.80;;;;;;2040945;29;20180;-67
2021/08/09 00:06:11;;;;;;;3.03;0.63;;;9.40;90.90;;;;;;2048864;29;20254;-67
2021/08/09 00:07:12;;;;;;;3.37;0.60;;;9.30;90.90;;;;;;2041339;29;20179;-67
2021/08/09 00:08:13;;;;;;;0.40;0.40;;;9.30;90.90;;;;;;2041660;29;20675;-67
2021/08/09 00:09:14;;;;;;;0.57;0.57;;;9.30;90.90;;;;;;2041228;29;20653;-67
2021/08/09 00:10:14;;;;;;;0.50;0.50;;;9.30;91.00;;;;;;2041310;29;20209;-67
2021/08/09 00:11:15;;;;;;;0.30;0.30;;;9.30;91.10;;;;;;2041401;29;20653;-67
2021/08/09 00:12:16;;;;;;;0.77;0.77;;;9.30;91.30;;;;;;2040688;29;20200;-67
2021/08/09 00:13:16;;;;;;;0.30;0.30;;;9.30;91.30;;;;;;2032885;29;20184;-67
2021/08/09 00:14:17;;;;;;;0.60;0.40;;;9.30;91.30;;;;;;2040817;29;20191;-67
2021/08/09 00:15:18;;;;;;;0.40;0.40;;;9.30;91.40;;;;;;2041391;29;20614;-67
2021/08/09 00:16:19;;;;;;;0.27;0.27;;;9.30;91.40;;;;;;2041445;29;20192;-67
2021/08/09 00:17:19;;;;;;;0.60;0.60;;;9.40;91.30;;;;;;2041214;29;20191;-67
2021/08/09 00:18:23;;;;;;;0.60;0.60;;;9.40;91.30;;;;;;2040691;29;20197;-68
2021/08/09 00:19:24;;;;;;;0.45;0.45;;;9.40;91.70;;;;;;2033306;29;20189;-67
2021/08/09 00:20:25;;;;;;;0.27;0.27;;;9.30;91.70;;;;;;2040970;29;20651;-67
2021/08/09 00:21:25;;;;;;;0.87;0.87;;;9.30;91.80;;;;;;2041314;29;20186;-67
2021/08/09 00:22:26;;;;;;;0.90;0.90;;;9.30;91.80;;;;;;2041261;29;20208;-67
2021/08/09 00:23:27;;;;;;;0.50;0.50;;;9.40;91.70;;;;;;2041400;29;20704;-67
2021/08/09 00:24:28;;;;;;;0.50;0.50;;;9.40;91.80;;;;;;2040657;29;20530;-67
2021/08/09 00:25:29;;;;;;;0.88;0.65;;;9.40;91.70;;;;;;2040804;29;20183;-67
2021/08/09 00:26:30;;;;;;;0.57;0.57;;;9.40;91.70;;;;;;2040692;29;20269;-67
2021/08/09 00:27:31;;;;;;;0.40;0.40;;;9.40;91.70;;;;;;2040532;29;20185;-67
2021/08/09 00:28:31;;;;;;;0.60;0.60;;;9.50;91.70;;;;;;2041368;29;20179;-67
2021/08/09 00:29:32;;;;;;;0.20;0.20;;;9.50;91.80;;;;;;2041132;29;20219;-67
2021/08/09 00:30:33;;;;;;;0.30;0.30;;;9.50;91.80;;;;;;2041290;29;20196;-67
2021/08/09 00:31:33;;;;;;;0.23;0.23;;;9.50;91.80;;;;;;2041330;29;20234;-67
2021/08/09 00:32:35;;;;;;;0.40;0.40;;;9.50;91.80;;;;;;2040636;29;20207;-67
2021/08/09 00:33:35;;;;;;;0.45;0.45;;;9.40;91.80;;;;;;2040676;29;20188;-67
2021/08/09 00:34:36;;;;;;;0.20;0.20;;;9.40;91.80;;;;;;2041189;29;20195;-68
2021/08/09 00:35:37;;;;;;;0.40;0.40;;;9.40;91.70;;;;;;2048350;29;20270;-67
2021/08/09 00:36:37;;;;;;;0.30;0.30;;;9.40;91.70;;;;;;2048552;29;20230;-67
2021/08/09 00:37:38;;;;;;;1.30;0.50;;;9.40;91.70;;;;;;2048304;29;20242;-67
2021/08/09 00:38:39;;;;;;;0.20;0.20;;;9.40;91.60;;;;;;2048686;29;20178;-67
2021/08/09 00:39:40;;;;;;;0.40;0.40;;;9.40;91.60;;;;;;2041091;29;20275;-67
2021/08/09 00:40:40;;;;;;;0.60;0.60;;;9.40;91.60;;;;;;2041087;29;20184;-67
2021/08/09 00:41:41;;;;;;;0.40;0.40;;;9.40;91.60;;;;;;2047766;28;20295;-67
2021/08/09 00:42:42;;;;;;;17.33;1.10;;;9.40;91.70;;;;;;2048246;29;20202;-67
2021/08/09 00:43:42;;;;;;;1.00;0.70;;;9.40;91.50;;;;;;2041245;28;20204;-67
2021/08/09 00:44:43;;;;;;;1.63;0.93;;;9.30;91.40;;;;;;2040561;29;20575;-67
2021/08/09 00:45:44;;;;;;;0.30;0.30;;;9.30;91.30;;;;;;2040588;29;20183;-68
2021/08/09 00:46:44;;;;;;;0.20;0.20;;;9.30;91.20;;;;;;2040431;29;20181;-67
2021/08/09 00:47:45;;;;;;;0.80;0.80;;;9.40;91.10;;;;;;2048391;29;20179;-66
2021/08/09 00:48:46;;;;;;;0.50;0.50;;;9.30;91.00;;;;;;2041144;29;20175;-67
2021/08/09 00:49:47;;;;;;;0.40;0.40;;;9.30;91.10;;;;;;2040657;29;20183;-67
2021/08/09 00:50:48;;;;;;;0.40;0.40;;;9.30;91.20;;;;;;2040772;29;20279;-67
2021/08/09 00:51:48;;;;;;;0.40;0.40;;;9.20;91.10;;;;;;2041176;29;20204;-67
2021/08/09 00:52:50;;;;;;;0.30;0.30;;;9.20;91.10;;;;;;2040591;29;20811;-66
2021/08/09 00:53:52;;;;;;;1.17;0.73;;;9.20;91.10;;;;;;2040853;29;20187;-67
2021/08/09 00:54:53;;;;;;;0.30;0.30;;;9.20;91.20;;;;;;2041204;29;20673;-66
2021/08/09 00:55:54;;;;;;;0.27;0.27;;;9.20;91.30;;;;;;2041378;29;20196;-66
2021/08/09 00:56:55;;;;;;;0.40;0.40;;;9.20;91.40;;;;;;2040538;29;20269;-67
2021/08/09 00:57:55;;;;;;;0.60;0.60;;;9.10;91.40;;;;;;2040779;29;20192;-67
2021/08/09 00:58:58;;;;;;;1.10;0.60;;;9.10;91.40;;;;;;2040503;29;20646;-66
2021/08/09 01:00:00;;;;;;;0.65;0.65;;;9.20;91.40;;;;;;2040610;29;20186;-67
2021/08/09 01:01:01;;;;;;;0.30;0.30;;;9.10;91.30;;;;;;2032804;29;20178;-66
2021/08/09 01:02:02;;;;;;;0.40;0.40;;;9.10;91.40;;;;;;2040446;29;20207;-67
2021/08/09 01:03:03;;;;;;;0.40;0.40;;;9.20;91.50;;;;;;2040421;29;20270;-66
2021/08/09 01:04:05;;;;;;;0.38;0.38;;;9.10;91.50;;;;;;2040396;29;20206;-66
2021/08/09 01:05:08;;;;;;;0.60;0.60;;;9.10;91.40;;;;;;2040992;29;20188;-66
2021/08/09 01:06:09;;;;;;;0.50;0.50;;;9.10;91.50;;;;;;2041109;29;20180;-67
2021/08/09 01:07:10;;;;;;;0.30;0.30;;;9.10;91.50;;;;;;2040828;29;20185;-67
2021/08/09 01:08:39;;;;;;;0.57;0.57;;;9.10;91.50;;;;;;2041206;29;20177;-66
2021/08/09 01:10:02;;;;;;;0.47;0.47;;;9.10;91.40;;;;;;2040321;29;20178;-67
2021/08/09 01:11:18;;;;;;;0.20;0.20;;;9.10;91.40;;;;;;2032480;29;20344;-68
2021/08/09 01:12:41;;;;;;;0.63;0.60;;;9.10;91.50;;;;;;2034363;29;20236;-67
2021/08/09 01:14:06;;;;;;;0.40;0.40;;;9.10;91.50;;;;;;2035355;29;20249;-68
2021/08/09 01:15:19;;;;;;;0.32;0.32;;;9.00;91.60;;;;;;2040620;29;20592;-67
2021/08/09 01:16:27;;;;;;;1.02;0.93;;;9.00;91.70;;;;;;2040464;29;20237;-67
2021/08/09 01:17:37;;;;;;;0.40;0.40;;;9.00;91.70;;;;;;2033356;29;20206;-67
2021/08/09 01:18:41;;;;;;;0.75;0.75;;;9.00;91.70;;;;;;2033768;29;20697;-67
2021/08/09 01:20:17;;;;;;;0.50;0.50;;;9.00;91.70;;;;;;2040204;29;20187;-66
2021/08/09 01:21:19;;;;;;;0.60;0.45;;;9.00;91.70;;;;;;2040669;29;20199;-66
2021/08/09 01:22:46;;;;;;;0.25;0.25;;;9.00;91.70;;;;;;2032153;29;20206;-66
2021/08/09 01:24:09;;;;;;;0.38;0.38;;;9.00;92.20;;;;;;2036203;29;20654;-67
2021/08/09 01:25:45;;;;;;;0.45;0.45;;;9.00;91.80;;;;;;2040949;29;20179;-67
2021/08/09 01:27:00;;;;;;;0.22;0.22;;;9.00;91.90;;;;;;2040292;29;20172;-66
2021/08/09 01:28:03;;;;;;;4.13;0.65;;;9.00;92.00;;;;;;2032362;29;20560;-67
2021/08/09 01:29:13;;;;;;;0.70;0.70;;;9.00;92.00;;;;;;2032704;29;20196;-66
2021/08/09 01:30:15;;;;;;;0.30;0.30;;;9.00;92.00;;;;;;2041638;29;20227;-66
2021/08/09 01:31:17;;;;;;;0.77;0.77;;;9.00;91.90;;;;;;2040169;29;20188;-66
2021/08/09 01:32:21;;;;;;;1.02;0.82;;;9.00;92.00;;;;;;2040149;29;20200;-66
2021/08/09 01:33:24;;;;;;;0.30;0.30;;;9.00;91.90;;;;;;2043128;28;20793;-66
2021/08/09 01:34:27;;;;;;;1.13;1.13;;;9.00;92.00;;;;;;2042071;28;20193;-66
2021/08/09 01:35:29;;;;;;;0.47;0.47;;;9.00;92.00;;;;;;2040573;29;20582;-67
2021/08/09 01:36:32;;;;;;;2.17;0.60;;;9.00;92.10;;;;;;2040302;29;20279;-66
2021/08/09 01:37:38;;;;;;;0.50;0.50;;;9.00;92.00;;;;;;2048070;29;20199;-66
2021/08/09 01:38:42;;;;;;;0.40;0.40;;;8.90;92.00;;;;;;2048134;29;20232;-66
2021/08/09 01:39:42;;;;;;;0.70;0.70;;;8.90;92.00;;;;;;2040614;29;20612;-66
2021/08/09 01:40:45;;;;;;;0.83;0.50;;;8.90;91.90;;;;;;2048071;29;20272;-67
2021/08/09 01:41:49;;;;;;;0.65;0.57;;;8.90;91.80;;;;;;2047808;28;20307;-67
2021/08/09 01:42:51;;;;;;;0.40;0.40;;;8.90;91.80;;;;;;2040539;29;20196;-66
2021/08/09 01:43:52;;;;;;;0.73;0.63;;;8.90;91.80;;;;;;2048267;29;20172;-70
2021/08/09 01:44:53;;;;;;;1.35;0.52;;;8.90;91.70;;;;;;2040050;29;20195;-66
2021/08/09 01:45:57;;;;;;;0.60;0.60;;;8.90;91.60;;;;;;2032480;29;20205;-67
2021/08/09 01:46:58;;;;;;;0.40;0.38;;;8.90;91.40;;;;;;2040314;29;20192;-66
2021/08/09 01:47:59;;;;;;;1.97;0.97;;;8.90;91.10;;;;;;2048136;29;20184;-67
2021/08/09 01:49:03;;;;;;;0.57;0.57;;;9.00;91.00;;;;;;2040224;29;20865;-66
2021/08/09 01:50:05;;;;;;;0.77;0.70;;;8.90;91.00;;;;;;2040472;29;20187;-67
2021/08/09 01:51:06;;;;;;;0.40;0.40;;;8.80;91.10;;;;;;2040133;29;20293;-67
2021/08/09 01:52:08;;;;;;;0.52;0.52;;;8.80;91.20;;;;;;2048020;28;20731;-67
2021/08/09 01:53:11;;;;;;;0.55;0.55;;;8.80;91.30;;;;;;2048350;28;20207;-67
2021/08/09 01:54:13;;;;;;;0.20;0.20;;;8.70;91.30;;;;;;2049701;29;20187;-67
2021/08/09 01:55:17;;;;;;;0.47;0.47;;;8.70;91.40;;;;;;2049652;29;20197;-67
2021/08/09 01:56:19;;;;;;;0.30;0.30;;;8.70;91.40;;;;;;2049768;29;20651;-67
2021/08/09 01:57:20;;;;;;;0.28;0.28;;;8.70;91.50;;;;;;2049509;29;20204;-69
2021/08/09 01:58:21;;;;;;;0.20;0.20;;;8.60;91.40;;;;;;2042153;29;20176;-67
2021/08/09 01:59:23;;;;;;;0.27;0.27;;;8.60;91.50;;;;;;2049736;29;20661;-67
2021/08/09 02:00:23;;;;;;;0.60;0.38;;;8.50;91.60;;;;;;2050403;28;20175;-67
2021/08/09 02:01:26;;;;;;;0.90;0.90;;;8.50;91.80;;;;;;2049519;28;20677;-67
2021/08/09 02:02:32;;;;;;;0.50;0.50;;;8.50;91.90;;;;;;2041968;29;20196;-67
2021/08/09 02:03:33;;;;;;;0.93;0.50;;;8.40;92.00;;;;;;2042636;29;20178;-67
2021/08/09 02:04:34;;;;;;;0.47;0.45;;;8.40;92.10;;;;;;2049681;29;20176;-67
2021/08/09 02:05:36;;;;;;;0.67;0.67;;;8.40;92.10;;;;;;2050339;28;20231;-67
2021/08/09 02:06:36;;;;;;;0.40;0.40;;;8.40;92.10;;;;;;2049661;29;20192;-67
2021/08/09 02:07:44;;;;;;;1.10;0.77;;;8.40;92.10;;;;;;2041636;29;20180;-67
2021/08/09 02:08:45;;;;;;;0.95;0.95;;;8.50;92.20;;;;;;2049642;29;20199;-67
2021/08/09 02:09:47;;;;;;;0.47;0.32;;;8.40;92.20;;;;;;2041692;28;20177;-67
2021/08/09 02:10:55;;;;;;;0.57;0.57;;;8.50;92.30;;;;;;2041749;29;20233;-67
2021/08/09 02:12:04;;;;;;;0.57;0.57;;;8.40;92.20;;;;;;2042668;29;20201;-67
2021/08/09 02:13:27;;;;;;;0.22;0.22;;;8.40;92.30;;;;;;2042780;29;20184;-67
2021/08/09 02:14:33;;;;;;;0.30;0.30;;;8.50;92.20;;;;;;2050027;29;20275;-68
2021/08/09 02:16:14;;;;;;;0.20;0.20;;;8.50;92.00;;;;;;2049786;29;20166;-67
2021/08/09 02:17:18;;;;;;;0.20;0.20;;;8.50;92.00;;;;;;2046919;29;20175;-67
2021/08/09 02:18:46;;;;;;;1.52;0.60;;;8.60;92.00;;;;;;2042134;29;20686;-68
2021/08/09 02:19:58;;;;;;;0.40;0.30;;;8.50;92.00;;;;;;2045185;29;20173;-67
2021/08/09 02:21:04;;;;;;;0.20;0.20;;;8.50;92.10;;;;;;2043273;29;20535;-67
2021/08/09 02:22:19;;;;;;;0.63;0.38;;;8.50;92.10;;;;;;2042091;29;20350;-68
2021/08/09 02:23:21;;;;;;;0.43;0.43;;;8.50;92.10;;;;;;2049574;29;20176;-68
2021/08/09 02:24:32;;;;;;;0.50;0.50;;;8.50;92.20;;;;;;2041669;29;20211;-67
2021/08/09 02:25:35;;;;;;;0.77;0.77;;;8.50;92.30;;;;;;2043201;29;20617;-67
2021/08/09 02:26:46;;;;;;;1.00;0.50;;;8.40;92.30;;;;;;2041721;29;20641;-67
2021/08/09 02:27:54;;;;;;;0.98;0.65;;;8.50;92.30;;;;;;2035037;29;20181;-68
2021/08/09 02:29:05;;;;;;;0.20;0.20;;;8.50;92.30;;;;;;2035696;29;20174;-68
2021/08/09 02:30:07;;;;;;;0.10;0.10;;;8.50;92.20;;;;;;2042884;29;20243;-68
2021/08/09 02:31:09;;;;;;;1.83;0.70;;;8.50;92.20;;;;;;2049533;29;20689;-67
2021/08/09 02:32:12;;;;;;;0.70;0.70;;;8.50;92.10;;;;;;2049548;28;20245;-67
2021/08/09 02:33:14;;;;;;;0.90;0.90;;;8.50;92.10;;;;;;2041794;29;20247;-68
2021/08/09 02:34:19;;;;;;;0.60;0.40;;;8.50;92.10;;;;;;2033734;29;20193;-68
2021/08/09 02:35:21;;;;;;;0.20;0.20;;;8.50;92.10;;;;;;2035047;29;20178;-68
2021/08/09 02:36:22;;;;;;;0.38;0.38;;;8.50;92.10;;;;;;2033668;29;20630;-67
2021/08/09 02:37:25;;;;;;;0.40;0.40;;;8.50;92.00;;;;;;2041566;29;20342;-68
2021/08/09 02:38:27;;;;;;;0.40;0.40;;;8.50;92.00;;;;;;2050138;29;20227;-67
2021/08/09 02:39:31;;;;;;;0.20;0.20;;;8.50;92.00;;;;;;2049369;29;20532;-68
2021/08/09 02:40:34;;;;;;;0.25;0.25;;;8.50;92.10;;;;;;2041857;29;20673;-67
2021/08/09 02:41:35;;;;;;;0.40;0.40;;;8.50;92.10;;;;;;2042151;29;20185;-67
2021/08/09 02:42:37;;;;;;;1.08;0.55;;;8.50;92.10;;;;;;2050712;29;20217;-68
2021/08/09 02:43:38;;;;;;;0.75;0.50;;;8.50;92.10;;;;;;2051039;29;20278;-67
2021/08/09 02:44:40;;;;;;;0.55;0.55;;;8.60;92.10;;;;;;2043228;28;20181;-68
2021/08/09 02:45:42;;;;;;;0.40;0.40;;;8.50;92.10;;;;;;2042805;29;20176;-68
2021/08/09 02:46:44;;;;;;;0.55;0.55;;;8.60;92.10;;;;;;2049464;29;20707;-67
2021/08/09 02:47:45;;;;;;;0.28;0.28;;;8.60;92.10;;;;;;2049513;29;20192;-68
2021/08/09 02:48:48;;;;;;;0.13;0.13;;;8.50;92.20;;;;;;2041831;29;20190;-68
2021/08/09 02:49:49;;;;;;;0.47;0.47;;;8.50;92.30;;;;;;2040381;28;20182;-67
2021/08/09 02:50:50;;;;;;;0.35;0.35;;;8.50;92.80;;;;;;2057237;28;20258;-67
2021/08/09 02:51:51;;;;;;;0.20;0.20;;;8.40;92.30;;;;;;2057783;28;20358;-68
2021/08/09 02:52:53;;;;;;;2.45;0.40;;;8.40;92.30;;;;;;2057305;28;20775;-67
2021/08/09 02:53:54;;;;;;;0.47;0.30;;;8.40;92.40;;;;;;2049363;28;20191;-67
2021/08/09 02:54:56;;;;;;;0.65;0.65;;;8.30;92.40;;;;;;2057353;28;20180;-67
2021/08/09 02:56:01;;;;;;;4.45;0.55;;;8.30;92.50;;;;;;2057313;28;20185;-67
2021/08/09 02:57:02;;;;;;;2.33;0.90;;;8.30;92.50;;;;;;2049645;28;20180;-68
2021/08/09 02:58:07;;;;;;;0.47;0.47;;;8.30;92.50;;;;;;2049242;28;20268;-67
2021/08/09 02:59:08;;;;;;;0.43;0.43;;;8.30;92.50;;;;;;2049857;28;20180;-69
2021/08/09 03:00:10;;;;;;;0.73;0.50;;;8.30;93.00;;;;;;2049603;28;20254;-67
2021/08/09 03:01:14;;;;;;;0.82;0.82;;;8.30;92.50;;;;;;2057341;28;20194;-67
2021/08/09 03:02:17;;;;;;;0.55;0.52;;;8.40;92.50;;;;;;2057162;28;20607;-67
2021/08/09 03:03:26;;;;;;;0.22;0.22;;;8.40;92.40;;;;;;2049490;28;20183;-67
2021/08/09 03:04:28;;;;;;;1.15;0.60;;;8.40;92.30;;;;;;2050400;28;20515;-67
2021/08/09 03:05:31;;;;;;;0.40;0.40;;;8.50;92.30;;;;;;2056713;28;20701;-68
2021/08/09 03:06:31;;;;;;;0.45;0.45;;;8.50;92.20;;;;;;2057130;28;20179;-67
2021/08/09 03:07:35;;;;;;;0.37;0.37;;;8.50;92.10;;;;;;2049109;28;20213;-68
2021/08/09 03:08:37;;;;;;;0.38;0.38;;;8.60;92.10;;;;;;2049510;28;20438;-67
2021/08/09 03:09:38;;;;;;;0.55;0.55;;;8.60;92.20;;;;;;2049396;28;20176;-67
2021/08/09 03:10:38;;;;;;;0.32;0.32;;;8.60;92.20;;;;;;2057134;28;20544;-67
2021/08/09 03:11:42;;;;;;;0.73;0.50;;;8.60;92.20;;;;;;2057145;28;20193;-68
2021/08/09 03:12:44;;;;;;;0.60;0.60;;;8.60;92.10;;;;;;2049526;28;20184;-68
2021/08/09 03:13:49;;;;;;;0.35;0.35;;;8.70;92.00;;;;;;2049346;28;20185;-67
2021/08/09 03:14:51;;;;;;;0.75;0.75;;;8.70;92.00;;;;;;2057149;28;20204;-67
2021/08/09 03:15:52;;;;;;;0.28;0.28;;;8.70;91.90;;;;;;2057269;28;20186;-67
2021/08/09 03:16:53;;;;;;;0.25;0.25;;;8.70;92.00;;;;;;2057080;28;20178;-67
2021/08/09 03:17:54;;;;;;;0.55;0.55;;;8.60;91.80;;;;;;2057708;28;20258;-67
2021/08/09 03:18:55;;;;;;;2.57;0.70;;;8.70;91.80;;;;;;2057693;28;20662;-67
2021/08/09 03:19:56;;;;;;;0.37;0.37;;;8.70;91.80;;;;;;2057784;28;20307;-67
2021/08/09 03:20:56;;;;;;;0.20;0.20;;;8.60;91.70;;;;;;2057695;28;20192;-67
2021/08/09 03:22:00;;;;;;;0.40;0.40;;;8.60;91.60;;;;;;2057528;28;20199;-67
2021/08/09 03:23:01;;;;;;;0.68;0.68;;;8.70;91.60;;;;;;2057718;28;20191;-67
2021/08/09 03:24:01;;;;;;;0.40;0.40;;;8.70;91.70;;;;;;2057025;28;20186;-67
2021/08/09 03:25:02;;;;;;;0.90;0.90;;;8.70;91.80;;;;;;2057006;28;20256;-67
2021/08/09 03:26:04;;;;;;;0.30;0.30;;;8.60;91.80;;;;;;2057847;28;20659;-67
2021/08/09 03:27:05;;;;;;;0.50;0.40;;;8.60;91.80;;;;;;2057025;28;20200;-67
2021/08/09 03:28:07;;;;;;;0.30;0.30;;;8.50;92.00;;;;;;2057077;28;20181;-67
2021/08/09 03:29:07;;;;;;;0.30;0.30;;;8.50;92.00;;;;;;2056955;28;20194;-67
2021/08/09 03:30:09;;;;;;;5.63;0.50;;;8.50;92.10;;;;;;2057053;28;20186;-67
2021/08/09 03:31:09;;;;;;;0.88;0.50;;;8.50;92.10;;;;;;2057528;28;20249;-67
2021/08/09 03:32:10;;;;;;;0.50;0.50;;;8.50;92.10;;;;;;2057634;28;20254;-67
2021/08/09 03:33:11;;;;;;;0.80;0.70;;;8.50;92.10;;;;;;2057528;28;20562;-67
2021/08/09 03:34:12;;;;;;;1.20;1.10;;;8.50;92.20;;;;;;2057485;28;20632;-67
2021/08/09 03:35:13;;;;;;;0.60;0.60;;;8.50;92.20;;;;;;2057186;28;20183;-68
2021/08/09 03:36:13;;;;;;;0.63;0.63;;;8.50;92.20;;;;;;2056861;28;20650;-67
2021/08/09 03:37:14;;;;;;;0.50;0.50;;;8.50;92.20;;;;;;2057426;28;20222;-67
2021/08/09 03:38:15;;;;;;;0.90;0.90;;;8.50;92.20;;;;;;2057507;28;20183;-67
2021/08/09 03:39:16;;;;;;;2.17;0.60;;;8.60;92.20;;;;;;2057446;28;20666;-67
2021/08/09 03:40:17;;;;;;;0.65;0.43;;;8.60;92.70;;;;;;2056691;28;20263;-67
2021/08/09 03:41:17;;;;;;;0.60;0.60;;;8.70;92.10;;;;;;2056808;28;20195;-67
2021/08/09 03:42:22;;;;;;;0.30;0.30;;;8.70;92.10;;;;;;2057044;28;20219;-67
2021/08/09 03:43:23;;;;;;;0.68;0.68;;;8.70;92.10;;;;;;2056428;28;20258;-67
2021/08/09 03:44:24;;;;;;;0.37;0.37;;;8.70;92.00;;;;;;2050751;28;20192;-68
2021/08/09 03:45:24;;;;;;;0.40;0.40;;;8.70;92.00;;;;;;2049441;28;20267;-67
2021/08/09 03:46:25;;;;;;;0.83;0.53;;;8.70;92.10;;;;;;2048659;29;20185;-67
2021/08/09 03:47:26;;;;;;;0.37;0.37;;;8.70;92.10;;;;;;2048569;29;20181;-67
2021/08/09 03:48:26;;;;;;;0.20;0.20;;;8.70;92.00;;;;;;2049400;28;20646;-67
2021/08/09 03:49:27;;;;;;;0.30;0.30;;;8.70;91.90;;;;;;2049311;28;20184;-67
2021/08/09 03:50:28;;;;;;;0.67;0.57;;;8.70;91.90;;;;;;2048710;29;20549;-67
2021/08/09 03:51:28;;;;;;;0.67;0.67;;;8.70;91.80;;;;;;2048718;28;20193;-67
2021/08/09 03:52:29;;;;;;;0.77;0.63;;;8.70;91.80;;;;;;2049231;28;20196;-67
2021/08/09 03:53:30;;;;;;;0.20;0.20;;;8.70;91.70;;;;;;2049341;28;20199;-67
2021/08/09 03:54:30;;;;;;;0.50;0.50;;;8.70;91.80;;;;;;2049290;28;20266;-67
2021/08/09 03:55:31;;;;;;;0.40;0.40;;;8.70;91.80;;;;;;2048696;29;20521;-67
2021/08/09 03:56:33;;;;;;;0.40;0.40;;;8.70;91.90;;;;;;2048682;29;20193;-67
2021/08/09 03:57:34;;;;;;;0.40;0.40;;;8.60;91.90;;;;;;2049232;28;20203;-67
2021/08/09 03:58:34;;;;;;;0.30;0.30;;;8.60;91.90;;;;;;2049286;28;20185;-67
2021/08/09 03:59:35;;;;;;;0.50;0.50;;;8.60;91.90;;;;;;2049230;28;20188;-67
2021/08/09 04:00:37;;;;;;;0.83;0.43;;;8.60;92.00;;;;;;2048662;29;20702;-67
2021/08/09 04:01:39;;;;;;;0.75;0.32;;;8.60;92.00;;;;;;2048830;28;20743;-67
2021/08/09 04:02:41;;;;;;;0.80;0.68;;;8.60;92.00;;;;;;2049176;28;20219;-67
2021/08/09 04:03:42;;;;;;;0.17;0.17;;;8.60;92.00;;;;;;2048701;29;20188;-67
2021/08/09 04:04:42;;;;;;;0.40;0.40;;;8.60;92.00;;;;;;2048629;29;20181;-67
2021/08/09 04:05:43;;;;;;;0.67;0.53;;;8.60;92.00;;;;;;2048767;29;20206;-67
2021/08/09 04:06:44;;;;;;;0.57;0.57;;;8.60;91.90;;;;;;2048613;29;20224;-67
2021/08/09 04:07:44;;;;;;;0.40;0.20;;;8.70;91.80;;;;;;2049236;28;20176;-67
2021/08/09 04:08:45;;;;;;;0.40;0.40;;;8.70;91.70;;;;;;2049303;28;20651;-68
2021/08/09 04:09:46;;;;;;;0.20;0.20;;;8.80;91.60;;;;;;2049311;28;20173;-68
2021/08/09 04:10:46;;;;;;;0.30;0.30;;;8.70;91.50;;;;;;2049346;28;20666;-67
2021/08/09 04:11:47;;;;;;;0.90;0.83;;;8.70;91.50;;;;;;2049360;28;20200;-67
2021/08/09 04:12:48;;;;;;;0.30;0.30;;;8.70;91.50;;;;;;2049464;28;20176;-67
2021/08/09 04:13:48;;;;;;;0.20;0.20;;;8.70;91.50;;;;;;2049358;29;20180;-67
2021/08/09 04:14:49;;;;;;;0.30;0.30;;;8.70;91.50;;;;;;2049293;28;20270;-67
2021/08/09 04:15:50;;;;;;;0.60;0.60;;;8.70;91.50;;;;;;2049346;28;20267;-67
2021/08/09 04:16:50;;;;;;;0.30;0.30;;;8.70;91.50;;;;;;2047671;28;20677;-67
2021/08/09 04:17:51;;;;;;;0.30;0.30;;;8.60;92.00;;;;;;2048567;29;20688;-67
2021/08/09 04:18:52;;;;;;;0.50;0.50;;;8.70;91.70;;;;;;2048618;29;20183;-67
2021/08/09 04:19:53;;;;;;;0.40;0.40;;;8.70;91.80;;;;;;2040659;29;20189;-67
2021/08/09 04:20:53;;;;;;;0.20;0.20;;;8.60;91.90;;;;;;2040565;29;20260;-67
2021/08/09 04:21:54;;;;;;;0.30;0.30;;;8.60;91.90;;;;;;2048387;28;20292;-67
2021/08/09 04:22:54;;;;;;;0.37;0.37;;;8.60;91.90;;;;;;2048598;29;20187;-67
2021/08/09 04:23:55;;;;;;;0.43;0.43;;;8.60;91.90;;;;;;2040635;29;20181;-67
2021/08/09 04:24:56;;;;;;;0.20;0.20;;;8.60;91.90;;;;;;2048566;29;20223;-67
2021/08/09 04:25:57;;;;;;;0.20;0.20;;;8.60;91.90;;;;;;2048351;28;20176;-67
2021/08/09 04:26:58;;;;;;;0.33;0.33;;;8.60;91.80;;;;;;2048334;28;20183;-67
2021/08/09 04:27:58;;;;;;;0.20;0.20;;;8.60;91.80;;;;;;2040565;29;20667;-67
2021/08/09 04:28:59;;;;;;;0.63;0.53;;;8.60;91.80;;;;;;2048445;29;20179;-67
2021/08/09 04:30:00;;;;;;;4.05;0.93;;;8.60;91.70;;;;;;2048194;28;20283;-67
2021/08/09 04:31:01;;;;;;;0.37;0.37;;;8.60;92.30;;;;;;2040513;29;20563;-67
2021/08/09 04:32:15;;;;;;;0.67;0.67;;;8.60;91.70;;;;;;2048393;28;20197;-67
2021/08/09 04:33:15;;;;;;;0.60;0.60;;;8.60;91.80;;;;;;2048578;29;20666;-68
2021/08/09 04:34:16;;;;;;;0.50;0.50;;;8.50;91.90;;;;;;2048414;29;20180;-68
2021/08/09 04:35:17;;;;;;;1.03;0.77;;;8.50;92.00;;;;;;2049056;28;20693;-68
2021/08/09 04:36:18;;;;;;;0.70;0.70;;;8.40;92.10;;;;;;2048954;28;20194;-68
2021/08/09 04:37:20;;;;;;;0.43;0.43;;;8.40;92.10;;;;;;2048940;28;20184;-68
2021/08/09 04:38:21;;;;;;;0.30;0.30;;;8.40;92.10;;;;;;2048354;29;20187;-68
2021/08/09 04:39:21;;;;;;;0.30;0.30;;;8.40;92.20;;;;;;2048374;29;20185;-67
2021/08/09 04:40:22;;;;;;;0.77;0.53;;;8.40;92.10;;;;;;2049006;28;20239;-68
2021/08/09 04:41:23;;;;;;;2.13;1.13;;;8.40;92.10;;;;;;2048402;28;20180;-68
2021/08/09 04:42:23;;;;;;;0.30;0.30;;;8.50;92.00;;;;;;2040278;29;20212;-67
2021/08/09 04:43:24;;;;;;;0.03;0.03;;;8.50;92.10;;;;;;2048402;29;20567;-68
2021/08/09 04:44:25;;;;;;;0.30;0.30;;;8.50;92.10;;;;;;2048956;28;20184;-68
2021/08/09 04:45:25;;;;;;;0.40;0.40;;;8.50;92.20;;;;;;2049057;29;20184;-68
2021/08/09 04:46:26;;;;;;;0.40;0.40;;;8.50;92.20;;;;;;2048965;28;20270;-68
2021/08/09 04:47:27;;;;;;;0.30;0.30;;;8.50;92.20;;;;;;2048229;29;20191;-68
2021/08/09 04:48:28;;;;;;;1.50;0.50;;;8.60;92.20;;;;;;2048342;29;20198;-68
2021/08/09 04:49:28;;;;;;;0.87;0.87;;;8.60;92.10;;;;;;2048948;28;20188;-68
2021/08/09 04:50:29;;;;;;;1.50;0.93;;;8.60;92.10;;;;;;2048912;28;20235;-68
2021/08/09 04:51:30;;;;;;;0.47;0.47;;;8.70;92.00;;;;;;2048937;28;20215;-68
2021/08/09 04:52:30;;;;;;;0.77;0.77;;;8.80;91.90;;;;;;2048905;28;20659;-68
2021/08/09 04:53:31;;;;;;;0.40;0.40;;;8.80;91.80;;;;;;2045055;29;20190;-68
2021/08/09 04:54:32;;;;;;;0.43;0.43;;;8.90;91.80;;;;;;2040007;29;20203;-68
2021/08/09 04:55:33;;;;;;;0.60;0.60;;;8.90;91.90;;;;;;2040906;29;20192;-68
2021/08/09 04:56:33;;;;;;;0.30;0.30;;;9.00;91.90;;;;;;2040757;29;20196;-67
2021/08/09 04:57:34;;;;;;;0.30;0.30;;;9.00;91.90;;;;;;2040637;29;20588;-67
2021/08/09 04:58:35;;;;;;;0.30;0.30;;;9.10;91.90;;;;;;2040824;29;20201;-68
2021/08/09 04:59:36;;;;;;;0.50;0.27;;;9.20;91.80;;;;;;2040688;29;20200;-68
2021/08/09 05:00:36;;;;;;;1.90;1.40;;;9.30;91.70;;;;;;2040937;29;20184;-68
2021/08/09 05:01:37;;;;;;;0.23;0.23;;;9.30;91.60;;;;;;2040859;29;20193;-68
2021/08/09 05:02:38;;;;;;;0.43;0.43;;;9.40;91.50;;;;;;2040805;29;20685;-68
2021/08/09 05:03:39;;;;;;;0.53;0.53;;;9.50;91.60;;;;;;2040793;29;20240;-68
2021/08/09 05:04:40;;;;;;;0.60;0.60;;;9.60;91.40;;;;;;2040144;29;20227;-68
2021/08/09 05:05:45;;;;;;;0.60;0.60;;;9.60;91.40;;;;;;2040153;29;20178;-68
2021/08/09 05:06:48;;;;;;;0.52;0.50;;;9.60;91.50;;;;;;2040757;29;20671;-68
2021/08/09 05:07:56;;;;;;;0.55;0.55;;;9.60;91.60;;;;;;2040678;29;20687;-68
2021/08/09 05:08:57;;;;;;;7.03;0.50;;;9.50;91.70;;;;;;2040822;29;20663;-68
2021/08/09 05:09:58;;;;;;;0.60;0.60;;;9.60;91.70;;;;;;2039983;29;20211;-68
2021/08/09 05:10:59;;;;;;;0.40;0.40;;;9.60;91.70;;;;;;2040262;29;20176;-67
2021/08/09 05:11:59;;;;;;;0.33;0.33;;;9.60;91.70;;;;;;2047977;28;20200;-68
2021/08/09 05:13:00;;;;;;;0.93;0.93;;;9.60;91.80;;;;;;2040794;29;20180;-67
2021/08/09 05:14:01;;;;;;;0.40;0.40;;;9.60;91.80;;;;;;2040758;29;20173;-68
2021/08/09 05:15:03;;;;;;;0.70;0.70;;;9.70;91.90;;;;;;2040040;29;20181;-67
2021/08/09 05:16:04;;;;;;;0.60;0.60;;;9.70;91.80;;;;;;2040084;29;20227;-68
2021/08/09 05:17:05;;;;;;;0.52;0.52;;;9.80;91.70;;;;;;2040388;29;20180;-67
2021/08/09 05:18:06;;;;;;;0.53;0.53;;;9.90;91.60;;;;;;2040041;29;20306;-68
2021/08/09 05:19:08;;;;;;;0.60;0.60;;;9.90;91.50;;;;;;2040135;29;20195;-68
2021/08/09 05:20:09;;;;;;;0.40;0.40;;;10.00;91.40;;;;;;2040632;29;20663;-68
2021/08/09 05:21:14;;;;;;;0.38;0.38;;;10.10;91.00;;;;;;2040715;29;20187;-68
2021/08/09 05:22:15;;;;;;;0.30;0.30;;;10.20;90.80;;;;;;2039944;29;20228;-68
2021/08/09 05:23:16;;;;;;;0.67;0.60;;;10.30;90.80;;;;;;2040167;29;20541;-65
2021/08/09 05:24:16;;;;;;;0.77;0.70;;;10.40;90.80;;;;;;2040643;29;20180;-68
2021/08/09 05:25:20;;;;;;;0.80;0.80;;;10.40;90.80;;;;;;2040019;29;20436;-68
2021/08/09 05:26:21;;;;;;;0.63;0.63;;;10.50;90.70;;;;;;2040075;29;20204;-67
2021/08/09 05:27:22;;;;;;;0.50;0.50;;;10.50;90.70;;;;;;2040191;29;20185;-68
2021/08/09 05:28:22;;;;;;;0.40;0.30;;;10.50;90.50;;;;;;2040436;29;20268;-68
2021/08/09 05:29:23;;;;;;;0.53;0.53;;;10.50;90.50;;;;;;2040454;29;20179;-68
2021/08/09 05:30:24;;;;;;;0.80;0.80;;;10.50;90.80;;;;;;2040716;29;20180;-67
2021/08/09 05:31:26;;;;;;;1.47;0.87;;;10.50;90.70;;;;;;2039871;29;20208;-68